Time;durP1;ratioP1;P1;durP2;ratioP2;P2;SDS_P1;SDS_P2;PMS_P1;PMS_P2;Temp;Humidity;BMP_temperature;BMP_pressure;BME280_temperature;BME280_humidity;BME280_pressure;Samples;Min_cycle;Max_cycle;Signal;HPM_P1;HPM_P2
2023/12/25 00:01:07;;;;;;;4.55;1.35;;;10.50;99.90;;;;;;4961171;28;20027;-62
2023/12/25 00:03:32;;;;;;;2.80;1.17;;;10.60;99.90;;;;;;4976328;28;20035;-62
2023/12/25 00:05:58;;;;;;;2.92;1.10;;;10.70;99.90;;;;;;4976144;28;20070;-62
2023/12/25 00:08:24;;;;;;;3.72;1.20;;;10.60;99.90;;;;;;4973177;28;20103;-63
2023/12/25 00:10:49;;;;;;;4.70;1.20;;;10.50;99.90;;;;;;4979015;28;20390;-63
2023/12/25 00:13:15;;;;;;;8.30;1.20;;;10.50;99.90;;;;;;4966687;28;20039;-63
2023/12/25 00:15:40;;;;;;;6.28;1.30;;;10.50;99.90;;;;;;4974131;28;20038;-62
2023/12/25 00:18:06;;;;;;;2.25;1.00;;;10.50;99.90;;;;;;4977369;28;20034;-62
2023/12/25 00:20:32;;;;;;;1.45;0.90;;;10.50;99.90;;;;;;4970629;28;20035;-64
2023/12/25 00:22:57;;;;;;;2.42;1.00;;;10.40;99.90;;;;;;4968065;28;20474;-62
2023/12/25 00:25:23;;;;;;;1.60;0.80;;;10.40;99.90;;;;;;4975164;28;20027;-62
2023/12/25 00:27:48;;;;;;;1.73;0.90;;;10.40;99.90;;;;;;4978526;28;20547;-62
2023/12/25 00:30:14;;;;;;;3.95;1.10;;;10.40;99.90;;;;;;4971015;28;20065;-61
2023/12/25 00:32:40;;;;;;;3.38;1.15;;;10.40;99.90;;;;;;4983027;28;20030;-62
2023/12/25 00:35:06;;;;;;;2.38;0.90;;;10.40;99.90;;;;;;4979258;28;20030;-62
2023/12/25 00:37:31;;;;;;;2.30;1.00;;;10.40;99.90;;;;;;4978431;28;20535;-62
2023/12/25 00:39:57;;;;;;;0.63;0.60;;;10.40;99.90;;;;;;4979965;28;20885;-62
2023/12/25 00:42:23;;;;;;;3.17;1.23;;;10.40;99.90;;;;;;4973024;28;20054;-61
2023/12/25 00:44:49;;;;;;;3.55;1.13;;;10.40;99.90;;;;;;4975279;28;20031;-62
2023/12/25 00:47:14;;;;;;;3.67;1.10;;;10.40;99.90;;;;;;4970817;28;20027;-61
2023/12/25 00:49:40;;;;;;;1.98;0.93;;;10.40;99.90;;;;;;4968975;28;20037;-62
2023/12/25 00:52:05;;;;;;;3.35;1.20;;;10.40;99.90;;;;;;4978546;28;20057;-61
2023/12/25 00:54:31;;;;;;;4.20;1.05;;;10.40;99.90;;;;;;4974126;28;20082;-61
2023/12/25 00:56:58;;;;;;;2.40;0.95;;;10.40;99.90;;;;;;4971108;28;20478;-61
2023/12/25 00:59:24;;;;;;;3.47;1.13;;;10.50;99.90;;;;;;4974366;28;20521;-62
2023/12/25 01:01:49;;;;;;;3.60;1.10;;;10.40;99.90;;;;;;4977409;28;20039;-61
2023/12/25 01:04:15;;;;;;;4.65;1.20;;;10.40;99.90;;;;;;4976345;28;20077;-62
2023/12/25 01:06:41;;;;;;;1.27;0.80;;;10.50;99.90;;;;;;4975127;28;20023;-61
2023/12/25 01:09:07;;;;;;;3.53;1.20;;;10.50;99.90;;;;;;4972201;28;20027;-61
2023/12/25 01:11:32;;;;;;;1.92;0.95;;;10.40;99.90;;;;;;4980151;28;20051;-61
2023/12/25 01:13:58;;;;;;;6.60;1.60;;;10.50;99.90;;;;;;4977482;28;20074;-61
2023/12/25 01:16:24;;;;;;;3.30;1.25;;;10.40;99.90;;;;;;4975655;28;20026;-61
2023/12/25 01:18:50;;;;;;;3.13;1.23;;;10.50;99.90;;;;;;4976832;28;21053;-62
2023/12/25 01:21:16;;;;;;;5.22;1.33;;;10.50;99.90;;;;;;4972015;28;20026;-61
2023/12/25 01:23:42;;;;;;;3.85;1.30;;;10.50;99.90;;;;;;4972294;28;20372;-61
2023/12/25 01:26:07;;;;;;;3.42;1.35;;;10.50;99.90;;;;;;4974822;28;20110;-61
2023/12/25 01:28:33;;;;;;;3.88;1.42;;;10.40;99.90;;;;;;4981199;28;20027;-62
2023/12/25 01:30:59;;;;;;;3.75;1.50;;;10.40;99.90;;;;;;4968935;28;20035;-62
2023/12/25 01:33:24;;;;;;;4.13;1.40;;;10.40;99.90;;;;;;4977771;28;20030;-62
2023/12/25 01:35:50;;;;;;;6.57;1.80;;;10.40;99.90;;;;;;4973642;28;20057;-62
2023/12/25 01:38:16;;;;;;;6.10;1.70;;;10.40;99.90;;;;;;4975545;28;20023;-61
2023/12/25 01:40:45;;;;;;;7.45;2.13;;;10.40;99.90;;;;;;4975734;28;20042;-61
2023/12/25 01:43:10;;;;;;;5.45;1.60;;;10.40;99.90;;;;;;4974567;28;20027;-61
2023/12/25 01:45:36;;;;;;;5.65;1.98;;;10.40;99.90;;;;;;4975212;28;20023;-61
2023/12/25 01:48:02;;;;;;;6.70;1.70;;;10.40;99.90;;;;;;4978245;28;20081;-61
2023/12/25 01:50:28;;;;;;;4.90;1.65;;;10.40;99.90;;;;;;4970661;28;20405;-61
2023/12/25 01:52:55;;;;;;;7.47;2.15;;;10.40;99.90;;;;;;4980876;28;20474;-61
2023/12/25 01:55:20;;;;;;;5.43;1.95;;;10.40;99.90;;;;;;4971228;28;20027;-61
2023/12/25 01:57:46;;;;;;;6.10;2.20;;;10.50;99.90;;;;;;4978330;28;20504;-61
2023/12/25 02:00:12;;;;;;;8.85;2.20;;;10.50;99.90;;;;;;4970032;28;20083;-61
2023/12/25 02:02:39;;;;;;;5.10;1.75;;;10.50;99.90;;;;;;4977027;28;20037;-61
2023/12/25 02:05:05;;;;;;;7.00;2.20;;;10.50;99.90;;;;;;4974526;28;20151;-61
2023/12/25 02:07:32;;;;;;;5.70;1.90;;;10.50;99.90;;;;;;4971141;28;20042;-62
2023/12/25 02:09:58;;;;;;;7.68;1.70;;;10.60;99.90;;;;;;4974724;28;20113;-61
2023/12/25 02:12:24;;;;;;;5.53;1.60;;;10.50;99.90;;;;;;4977090;28;20875;-61
2023/12/25 02:14:49;;;;;;;4.25;1.48;;;10.60;99.90;;;;;;4973694;28;20038;-61
2023/12/25 02:17:15;;;;;;;3.88;1.48;;;10.60;99.90;;;;;;4968819;28;20045;-61
2023/12/25 02:19:46;;;;;;;4.22;1.55;;;10.60;99.90;;;;;;4975647;28;20482;-61
2023/12/25 02:22:13;;;;;;;3.80;1.33;;;10.60;99.90;;;;;;4978590;28;20029;-61
2023/12/25 02:24:48;;;;;;;3.55;1.30;;;10.60;99.90;;;;;;4974233;28;20023;-60
2023/12/25 02:27:14;;;;;;;3.35;1.25;;;10.60;99.90;;;;;;4972825;28;20030;-61
2023/12/25 02:29:40;;;;;;;3.63;1.30;;;10.60;99.90;;;;;;4974607;28;20027;-61
2023/12/25 02:32:05;;;;;;;2.97;1.17;;;10.60;99.90;;;;;;4967159;28;20027;-61
2023/12/25 02:34:31;;;;;;;3.40;1.10;;;10.60;99.90;;;;;;4974351;28;20513;-61
2023/12/25 02:36:57;;;;;;;4.68;1.10;;;10.60;99.90;;;;;;4976537;28;20519;-60
2023/12/25 02:39:23;;;;;;;3.40;1.20;;;10.60;99.90;;;;;;4974598;28;20030;-62
2023/12/25 02:41:48;;;;;;;4.18;1.65;;;10.60;99.90;;;;;;4975252;28;20034;-61
2023/12/25 02:44:16;;;;;;;2.85;1.05;;;10.60;99.90;;;;;;4974051;28;20027;-62
2023/12/25 02:46:41;;;;;;;1.85;0.90;;;10.70;99.90;;;;;;4975007;28;20107;-61
2023/12/25 02:49:07;;;;;;;2.83;1.20;;;10.60;99.90;;;;;;4975281;28;20133;-61
2023/12/25 02:51:33;;;;;;;5.18;1.00;;;10.60;99.90;;;;;;4974877;28;20097;-61
2023/12/25 02:53:59;;;;;;;3.53;1.25;;;10.60;99.90;;;;;;4978912;28;20070;-61
2023/12/25 02:56:24;;;;;;;3.33;1.10;;;10.60;99.90;;;;;;4968712;28;20034;-61
2023/12/25 02:58:50;;;;;;;3.97;1.33;;;10.60;99.90;;;;;;4979320;28;20034;-63
2023/12/25 03:01:15;;;;;;;4.07;1.33;;;10.60;99.90;;;;;;4975022;28;20039;-63
2023/12/25 03:03:41;;;;;;;2.97;1.08;;;10.60;99.90;;;;;;4970853;28;20121;-63
2023/12/25 03:06:06;;;;;;;3.72;1.15;;;10.60;99.90;;;;;;4975376;28;20398;-63
2023/12/25 03:08:32;;;;;;;3.13;1.30;;;10.60;99.90;;;;;;4979070;28;20019;-63
2023/12/25 03:10:58;;;;;;;5.63;1.50;;;10.60;99.90;;;;;;4979800;28;20110;-63
2023/12/25 03:13:24;;;;;;;5.45;1.40;;;10.50;99.90;;;;;;4977502;28;20035;-63
2023/12/25 03:15:50;;;;;;;4.75;1.50;;;10.70;99.90;;;;;;4978561;28;20195;-61
2023/12/25 03:18:15;;;;;;;3.83;1.20;;;10.60;99.90;;;;;;4979215;28;20062;-63
2023/12/25 03:20:41;;;;;;;4.30;1.33;;;10.60;99.90;;;;;;4975330;28;20030;-63
2023/12/25 03:23:07;;;;;;;4.00;1.45;;;10.60;99.90;;;;;;4976331;28;20030;-63
2023/12/25 03:25:33;;;;;;;3.03;1.20;;;10.60;99.90;;;;;;4981150;28;20502;-63
2023/12/25 03:27:58;;;;;;;3.72;1.20;;;10.70;99.90;;;;;;4977332;28;20529;-63
2023/12/25 03:30:24;;;;;;;3.92;1.23;;;10.70;99.90;;;;;;4976500;28;20034;-63
2023/12/25 03:32:49;;;;;;;3.05;1.20;;;10.70;99.90;;;;;;4973956;28;20081;-63
2023/12/25 03:35:15;;;;;;;2.83;1.05;;;10.70;99.90;;;;;;4978493;28;20034;-61
2023/12/25 03:37:40;;;;;;;4.45;1.33;;;10.70;99.90;;;;;;4975881;28;20479;-61
2023/12/25 03:40:07;;;;;;;4.25;1.30;;;10.70;99.90;;;;;;4978802;28;20039;-62
2023/12/25 03:42:32;;;;;;;4.50;1.27;;;10.70;99.90;;;;;;4980870;28;20490;-62
2023/12/25 03:44:58;;;;;;;4.47;1.45;;;10.70;99.90;;;;;;4981260;28;20054;-62
2023/12/25 03:47:23;;;;;;;4.20;1.23;;;10.70;99.90;;;;;;4984574;28;20134;-61
2023/12/25 03:49:49;;;;;;;4.18;1.35;;;10.70;99.90;;;;;;4980390;28;20042;-61
2023/12/25 03:52:15;;;;;;;4.13;1.38;;;10.80;99.90;;;;;;4979046;28;20137;-62
2023/12/25 03:54:40;;;;;;;5.38;2.05;;;10.70;99.90;;;;;;4981143;28;20037;-62
2023/12/25 03:57:08;;;;;;;4.75;1.60;;;10.70;99.90;;;;;;4982393;28;20109;-62
2023/12/25 03:59:33;;;;;;;4.93;1.60;;;10.80;99.90;;;;;;4983597;28;20030;-63
2023/12/25 04:01:59;;;;;;;4.15;1.30;;;10.80;99.90;;;;;;4983550;28;20035;-62
2023/12/25 04:04:24;;;;;;;3.25;1.20;;;10.80;99.90;;;;;;4981234;28;20018;-62
2023/12/25 04:06:50;;;;;;;4.22;1.40;;;10.80;99.90;;;;;;4980837;28;20042;-62
2023/12/25 04:09:16;;;;;;;4.95;1.38;;;10.80;99.90;;;;;;4984780;28;20072;-62
2023/12/25 04:11:41;;;;;;;5.55;1.33;;;10.80;99.90;;;;;;4982479;28;20050;-62
2023/12/25 04:14:07;;;;;;;4.05;1.38;;;10.90;99.90;;;;;;4980659;28;20533;-61
2023/12/25 04:16:32;;;;;;;3.15;1.20;;;10.80;99.90;;;;;;4979756;28;20122;-62
2023/12/25 04:18:58;;;;;;;6.10;1.50;;;10.80;99.90;;;;;;4983394;28;20026;-62
2023/12/25 04:21:33;;;;;;;4.57;1.50;;;10.80;99.90;;;;;;4976902;28;20019;-63
2023/12/25 04:24:00;;;;;;;4.25;1.40;;;10.90;99.90;;;;;;4992994;28;20109;-62
2023/12/25 04:26:26;;;;;;;4.93;1.40;;;10.90;99.90;;;;;;4977112;28;20026;-63
2023/12/25 04:28:52;;;;;;;6.07;1.52;;;10.90;99.90;;;;;;4980177;28;20030;-61
2023/12/25 04:31:18;;;;;;;5.72;1.20;;;10.90;99.90;;;;;;4981018;28;20027;-63
2023/12/25 04:33:45;;;;;;;2.78;1.10;;;10.90;99.90;;;;;;4979720;28;20030;-63
2023/12/25 04:36:11;;;;;;;7.22;2.55;;;10.90;99.90;;;;;;4984084;28;20026;-62
2023/12/25 04:38:37;;;;;;;5.00;1.73;;;10.90;99.90;;;;;;4982534;28;20433;-63
2023/12/25 04:41:03;;;;;;;3.33;1.33;;;10.90;99.90;;;;;;4982254;28;20466;-62
2023/12/25 04:43:29;;;;;;;5.80;1.77;;;10.90;99.90;;;;;;4981971;28;20089;-62
2023/12/25 04:45:55;;;;;;;4.88;1.80;;;10.90;99.90;;;;;;4979712;28;20409;-62
2023/12/25 04:48:21;;;;;;;4.45;1.90;;;10.90;99.90;;;;;;4976733;28;20018;-62
2023/12/25 04:50:47;;;;;;;4.53;1.70;;;10.80;99.90;;;;;;4978786;28;20072;-62
2023/12/25 04:53:12;;;;;;;4.35;1.35;;;10.80;99.90;;;;;;4979376;28;20473;-62
2023/12/25 04:55:39;;;;;;;4.15;1.63;;;10.90;99.90;;;;;;4981484;28;20121;-62
2023/12/25 04:58:05;;;;;;;5.65;1.75;;;10.80;99.90;;;;;;4980771;28;20030;-62
2023/12/25 05:00:32;;;;;;;4.68;1.35;;;10.90;99.90;;;;;;4978003;28;20162;-62
2023/12/25 05:02:57;;;;;;;3.60;1.23;;;10.90;99.90;;;;;;4983265;28;20034;-63
2023/12/25 05:05:23;;;;;;;4.50;1.42;;;10.90;99.90;;;;;;4979584;28;20058;-61
2023/12/25 05:07:48;;;;;;;4.85;1.50;;;10.90;99.90;;;;;;4986409;28;20105;-61
2023/12/25 05:10:14;;;;;;;5.05;1.52;;;10.90;99.90;;;;;;4978905;28;20031;-61
2023/12/25 05:12:40;;;;;;;4.80;1.70;;;10.80;99.90;;;;;;4979997;28;20069;-61
2023/12/25 05:15:06;;;;;;;3.88;1.50;;;10.90;99.90;;;;;;4980942;28;20046;-62
2023/12/25 05:17:32;;;;;;;5.65;1.50;;;10.90;99.90;;;;;;4981950;28;20405;-61
2023/12/25 05:19:58;;;;;;;5.60;1.70;;;10.90;99.90;;;;;;4978942;28;20027;-61
2023/12/25 05:22:23;;;;;;;4.93;1.67;;;10.90;99.90;;;;;;4979013;28;20073;-61
2023/12/25 05:24:49;;;;;;;4.80;1.50;;;10.90;99.90;;;;;;4974148;28;20572;-61
2023/12/25 05:27:14;;;;;;;4.28;1.50;;;11.00;99.90;;;;;;4982263;28;20105;-61
2023/12/25 05:29:40;;;;;;;3.83;1.35;;;11.00;99.90;;;;;;4977386;28;20307;-61
2023/12/25 05:32:06;;;;;;;3.72;1.30;;;11.00;99.90;;;;;;4981154;28;20646;-63
2023/12/25 05:34:31;;;;;;;4.18;1.13;;;11.00;99.90;;;;;;4980384;28;20035;-62
2023/12/25 05:36:57;;;;;;;3.63;1.20;;;11.00;99.90;;;;;;4981438;28;20029;-63
2023/12/25 05:39:24;;;;;;;3.67;1.08;;;11.00;99.90;;;;;;4979472;28;20050;-63
2023/12/25 05:41:50;;;;;;;4.90;1.75;;;11.00;99.90;;;;;;4980511;28;20492;-63
2023/12/25 05:44:16;;;;;;;4.10;1.30;;;11.00;99.90;;;;;;4981134;28;20064;-62
2023/12/25 05:46:42;;;;;;;2.05;1.08;;;10.90;99.90;;;;;;4979307;28;20043;-60
2023/12/25 05:49:08;;;;;;;2.95;1.20;;;11.00;99.90;;;;;;4981175;28;20026;-61
2023/12/25 05:51:34;;;;;;;3.92;1.08;;;11.00;99.90;;;;;;4976784;28;20023;-61
2023/12/25 05:53:59;;;;;;;2.65;1.00;;;11.00;99.90;;;;;;4981029;28;20125;-61
2023/12/25 05:56:25;;;;;;;4.97;1.23;;;11.00;99.90;;;;;;4979156;28;20031;-63
2023/12/25 05:58:50;;;;;;;2.05;0.90;;;10.90;99.90;;;;;;4977806;28;20069;-63
2023/12/25 06:01:16;;;;;;;3.10;1.10;;;10.90;99.90;;;;;;4983441;28;20121;-61
2023/12/25 06:03:42;;;;;;;5.13;1.13;;;10.80;99.90;;;;;;4979013;28;20039;-63
2023/12/25 06:06:08;;;;;;;1.95;0.80;;;10.80;99.90;;;;;;4978493;28;20454;-63
2023/12/25 06:08:34;;;;;;;3.10;1.10;;;10.80;99.90;;;;;;4980591;28;20072;-62
2023/12/25 06:11:00;;;;;;;1.45;0.82;;;10.80;99.90;;;;;;4979484;28;20070;-61
2023/12/25 06:13:26;;;;;;;2.42;0.98;;;10.80;99.90;;;;;;4981700;28;20026;-62
2023/12/25 06:15:52;;;;;;;2.70;1.08;;;10.80;99.90;;;;;;4978464;28;20061;-62
2023/12/25 06:18:18;;;;;;;3.20;1.20;;;10.80;99.90;;;;;;4981924;28;20095;-62
2023/12/25 06:20:44;;;;;;;3.92;1.10;;;10.80;99.90;;;;;;4975897;28;20022;-62
2023/12/25 06:23:10;;;;;;;2.08;1.00;;;10.80;99.90;;;;;;4979087;28;20039;-62
2023/12/25 06:25:36;;;;;;;2.45;1.00;;;10.80;99.90;;;;;;4980315;28;20363;-62
2023/12/25 06:28:02;;;;;;;4.10;1.20;;;10.80;99.90;;;;;;4979252;28;20124;-62
2023/12/25 06:30:28;;;;;;;3.00;1.10;;;10.70;99.90;;;;;;4976499;28;20069;-62
2023/12/25 06:32:54;;;;;;;3.13;1.10;;;10.70;99.90;;;;;;4981452;28;20038;-62
2023/12/25 06:35:20;;;;;;;2.78;1.13;;;10.70;99.90;;;;;;4977524;28;20046;-62
2023/12/25 06:37:45;;;;;;;2.80;1.13;;;10.80;99.90;;;;;;4980399;28;20528;-63
2023/12/25 06:40:11;;;;;;;3.67;0.90;;;10.70;99.90;;;;;;4977339;28;20081;-63
2023/12/25 06:42:37;;;;;;;2.90;1.17;;;10.70;99.90;;;;;;4976615;28;20027;-63
2023/12/25 06:45:05;;;;;;;3.20;1.23;;;10.70;99.90;;;;;;4980011;28;20433;-62
2023/12/25 06:47:30;;;;;;;3.17;1.00;;;10.70;99.90;;;;;;4979810;28;20105;-62
2023/12/25 06:49:56;;;;;;;1.75;0.90;;;10.70;99.90;;;;;;4977642;28;20098;-62
2023/12/25 06:52:21;;;;;;;3.13;1.02;;;10.70;99.90;;;;;;4979046;28;20031;-62
2023/12/25 06:54:47;;;;;;;4.80;1.00;;;10.80;99.90;;;;;;4977238;28;20027;-62
2023/12/25 06:57:14;;;;;;;2.83;0.95;;;10.70;99.90;;;;;;4978842;28;20053;-62
2023/12/25 06:59:40;;;;;;;4.63;1.30;;;10.80;99.90;;;;;;4975520;28;20030;-62
2023/12/25 07:02:07;;;;;;;3.50;1.20;;;10.70;99.90;;;;;;4978330;28;20058;-62
2023/12/25 07:04:33;;;;;;;3.65;1.33;;;10.60;99.90;;;;;;4979111;28;20158;-63
2023/12/25 07:06:59;;;;;;;3.10;1.05;;;10.60;99.90;;;;;;4981416;28;20408;-62
2023/12/25 07:09:25;;;;;;;3.45;1.20;;;10.60;99.90;;;;;;4979632;28;20077;-62
2023/12/25 07:11:51;;;;;;;6.22;1.52;;;10.50;99.90;;;;;;4979434;28;20527;-62
2023/12/25 07:14:17;;;;;;;3.28;1.38;;;10.50;99.90;;;;;;4978432;28;20114;-62
2023/12/25 07:16:42;;;;;;;6.32;1.50;;;10.60;99.90;;;;;;4977789;28;20054;-62
2023/12/25 07:19:08;;;;;;;3.95;1.35;;;10.60;99.90;;;;;;4980566;28;20026;-62
2023/12/25 07:21:34;;;;;;;6.18;1.40;;;10.60;99.90;;;;;;4976950;28;20030;-62
2023/12/25 07:23:59;;;;;;;4.18;1.58;;;10.60;99.90;;;;;;4978558;28;20073;-62
2023/12/25 07:26:25;;;;;;;3.75;1.33;;;10.60;99.90;;;;;;4977908;28;20038;-63
2023/12/25 07:28:51;;;;;;;4.70;1.60;;;10.60;99.90;;;;;;4979464;28;20033;-62
2023/12/25 07:31:17;;;;;;;3.40;1.20;;;10.60;99.90;;;;;;4976623;28;20037;-62
2023/12/25 07:33:43;;;;;;;4.82;1.50;;;10.60;99.90;;;;;;4979927;28;20557;-62
2023/12/25 07:36:09;;;;;;;3.97;1.40;;;10.70;99.90;;;;;;4973159;28;20066;-63
2023/12/25 07:38:37;;;;;;;5.57;1.52;;;10.70;99.90;;;;;;4976177;28;20123;-62
2023/12/25 07:41:08;;;;;;;4.88;1.42;;;10.70;99.90;;;;;;4979878;28;20038;-62
2023/12/25 07:43:33;;;;;;;2.33;0.95;;;10.70;99.90;;;;;;4977977;28;20023;-63
2023/12/25 07:45:59;;;;;;;5.63;1.30;;;10.70;99.90;;;;;;4975711;28;20048;-63
2023/12/25 07:48:24;;;;;;;3.30;1.08;;;10.70;99.90;;;;;;4979096;28;20030;-63
2023/12/25 07:50:51;;;;;;;2.53;1.10;;;10.70;99.90;;;;;;4973992;28;20418;-63
2023/12/25 07:53:17;;;;;;;3.25;1.20;;;10.70;99.90;;;;;;4983026;28;20022;-63
2023/12/25 07:55:43;;;;;;;2.88;1.00;;;10.70;99.90;;;;;;4981256;28;20066;-63
2023/12/25 07:58:10;;;;;;;2.95;1.17;;;10.70;99.90;;;;;;4980571;28;20030;-62
2023/12/25 08:00:36;;;;;;;4.40;1.20;;;10.70;99.90;;;;;;4973451;28;20023;-62
2023/12/25 08:03:01;;;;;;;4.28;1.20;;;10.70;99.90;;;;;;4982611;28;20073;-62
2023/12/25 08:05:27;;;;;;;5.07;1.20;;;10.70;99.90;;;;;;4975817;28;20019;-63
2023/12/25 08:07:53;;;;;;;3.13;1.08;;;10.60;99.90;;;;;;4980197;28;20027;-62
2023/12/25 08:10:18;;;;;;;3.55;1.30;;;10.60;99.90;;;;;;4980452;28;20023;-63
2023/12/25 08:12:44;;;;;;;3.20;1.15;;;10.60;99.90;;;;;;4982807;28;20051;-62
2023/12/25 08:15:13;;;;;;;5.15;1.80;;;10.60;99.90;;;;;;4977711;28;20038;-62
2023/12/25 08:17:40;;;;;;;4.75;1.40;;;10.60;99.90;;;;;;4980707;28;20030;-63
2023/12/25 08:20:06;;;;;;;3.65;1.50;;;10.60;99.90;;;;;;4975577;28;20478;-63
2023/12/25 08:22:32;;;;;;;5.00;1.50;;;10.50;99.90;;;;;;4974727;28;20477;-63
2023/12/25 08:24:59;;;;;;;4.95;1.30;;;10.50;99.90;;;;;;4980720;28;20027;-62
2023/12/25 08:27:24;;;;;;;3.45;1.30;;;10.50;99.90;;;;;;4980172;28;20018;-62
2023/12/25 08:29:50;;;;;;;6.00;1.70;;;10.40;99.90;;;;;;4975270;28;20019;-62
2023/12/25 08:32:16;;;;;;;4.45;1.52;;;10.50;99.90;;;;;;4981808;28;20370;-62
2023/12/25 08:34:41;;;;;;;3.05;1.00;;;10.50;99.90;;;;;;4982323;28;20034;-62
2023/12/25 08:37:07;;;;;;;4.57;1.45;;;10.50;99.90;;;;;;4981855;28;20026;-62
2023/12/25 08:39:34;;;;;;;3.92;1.23;;;10.50;99.90;;;;;;4979466;28;20488;-62
2023/12/25 08:42:01;;;;;;;3.75;1.30;;;10.50;99.90;;;;;;4978306;28;20089;-63
2023/12/25 08:44:32;;;;;;;3.63;1.17;;;10.50;99.90;;;;;;4983708;28;20537;-62
2023/12/25 08:46:59;;;;;;;5.68;1.80;;;10.50;99.90;;;;;;4976070;28;20023;-62
2023/12/25 08:49:25;;;;;;;6.75;1.83;;;10.40;99.90;;;;;;4979858;28;20014;-62
2023/12/25 08:51:50;;;;;;;4.38;1.58;;;10.50;99.90;;;;;;4979018;28;20030;-62
2023/12/25 08:54:17;;;;;;;5.05;1.70;;;10.40;99.90;;;;;;4978381;28;20389;-62
2023/12/25 08:56:43;;;;;;;3.35;1.20;;;10.30;99.90;;;;;;4976761;28;20035;-62
2023/12/25 08:59:09;;;;;;;4.35;1.30;;;10.30;99.90;;;;;;4975859;28;20031;-62
2023/12/25 09:01:35;;;;;;;2.42;1.05;;;10.20;99.90;;;;;;4974702;28;20034;-63
2023/12/25 09:04:01;;;;;;;3.45;1.40;;;10.20;99.90;;;;;;4975770;28;20034;-62
2023/12/25 09:06:27;;;;;;;5.68;1.67;;;10.10;99.90;;;;;;4979490;28;20561;-62
2023/12/25 09:08:52;;;;;;;3.38;1.17;;;10.10;99.90;;;;;;4981098;28;20019;-62
2023/12/25 09:11:18;;;;;;;2.35;1.00;;;10.10;99.90;;;;;;4971722;28;20051;-62
2023/12/25 09:13:44;;;;;;;3.78;1.17;;;10.00;99.90;;;;;;4979682;28;20030;-62
2023/12/25 09:16:11;;;;;;;2.03;1.00;;;10.00;99.90;;;;;;4979575;28;20573;-62
2023/12/25 09:18:36;;;;;;;6.13;2.20;;;10.00;99.90;;;;;;4975537;28;20093;-62
2023/12/25 09:21:02;;;;;;;8.75;3.33;;;9.90;99.90;;;;;;4975481;28;20030;-62
2023/12/25 09:23:28;;;;;;;5.53;2.10;;;9.90;99.90;;;;;;4981371;28;20367;-62
2023/12/25 09:25:55;;;;;;;6.03;2.40;;;9.80;99.90;;;;;;4969051;28;20078;-62
2023/12/25 09:28:22;;;;;;;3.65;1.40;;;9.80;99.90;;;;;;4970755;28;20085;-62
2023/12/25 09:30:47;;;;;;;2.33;0.93;;;9.80;99.90;;;;;;4970819;28;20023;-62
2023/12/25 09:33:13;;;;;;;4.45;1.38;;;9.80;99.90;;;;;;4969991;28;20026;-62
2023/12/25 09:35:38;;;;;;;4.25;1.02;;;9.60;99.90;;;;;;4972805;28;20035;-62
2023/12/25 09:38:04;;;;;;;2.33;0.98;;;9.70;99.90;;;;;;4965588;28;20106;-62
2023/12/25 09:40:33;;;;;;;1.95;0.80;;;9.60;99.90;;;;;;4976232;28;21126;-62
2023/12/25 09:42:59;;;;;;;2.28;0.90;;;9.60;99.90;;;;;;4965472;28;20089;-63
2023/12/25 09:45:31;;;;;;;3.95;1.20;;;9.60;99.90;;;;;;4972648;28;20023;-63
2023/12/25 09:47:57;;;;;;;3.65;1.30;;;9.60;99.90;;;;;;4968798;28;20085;-63
2023/12/25 09:50:23;;;;;;;4.10;1.30;;;9.60;99.90;;;;;;4972011;28;20481;-63
2023/12/25 09:52:48;;;;;;;5.70;1.70;;;9.70;99.90;;;;;;4977840;28;20061;-63
2023/12/25 09:55:14;;;;;;;6.45;1.98;;;9.70;99.90;;;;;;4974211;28;20061;-63
2023/12/25 09:57:41;;;;;;;4.53;1.55;;;9.70;99.90;;;;;;4978879;28;20038;-63
2023/12/25 10:00:08;;;;;;;6.25;1.60;;;9.70;99.90;;;;;;4972116;28;20030;-64
2023/12/25 10:02:37;;;;;;;3.42;1.25;;;9.70;99.90;;;;;;4972510;28;20039;-64
2023/12/25 10:05:05;;;;;;;7.93;2.47;;;9.60;99.90;;;;;;4968471;28;20019;-64
2023/12/25 10:07:30;;;;;;;6.20;1.90;;;9.60;99.90;;;;;;4976372;28;20371;-64
2023/12/25 10:09:58;;;;;;;5.60;1.85;;;9.60;99.90;;;;;;4972583;28;20023;-63
2023/12/25 10:12:24;;;;;;;4.15;1.55;;;9.50;99.90;;;;;;4977864;28;20043;-63
2023/12/25 10:14:50;;;;;;;5.28;1.83;;;9.60;99.90;;;;;;4976563;28;20046;-63
2023/12/25 10:17:16;;;;;;;5.47;1.13;;;9.50;99.90;;;;;;4971997;28;20076;-61
2023/12/25 10:19:54;;;;;;;3.00;1.08;;;9.50;99.90;;;;;;4975836;28;20117;-64
2023/12/25 10:22:31;;;;;;;3.42;1.15;;;9.50;99.90;;;;;;4976913;28;20022;-63
2023/12/25 10:25:08;;;;;;;2.90;1.10;;;9.40;99.90;;;;;;4972668;28;20033;-64
2023/12/25 10:27:34;;;;;;;1.73;0.90;;;9.40;99.90;;;;;;4965275;28;20466;-63
2023/12/25 10:30:00;;;;;;;4.78;1.33;;;9.40;99.90;;;;;;4965596;28;20037;-63
2023/12/25 10:32:26;;;;;;;3.75;1.13;;;9.40;99.90;;;;;;4969493;28;20022;-64
2023/12/25 10:35:13;;;;;;;3.70;1.10;;;9.40;99.90;;;;;;4976491;28;20485;-63
2023/12/25 10:37:40;;;;;;;3.88;1.23;;;9.50;99.90;;;;;;4966981;28;20102;-63
2023/12/25 10:40:27;;;;;;;4.63;1.40;;;9.50;99.90;;;;;;4974095;28;20137;-64
2023/12/25 10:42:55;;;;;;;5.28;1.20;;;9.50;99.90;;;;;;4965350;28;20038;-63
2023/12/25 10:45:25;;;;;;;3.17;1.23;;;9.60;99.90;;;;;;4973305;28;20072;-63
2023/12/25 10:47:56;;;;;;;2.83;1.20;;;9.50;99.90;;;;;;4968464;28;20078;-63
2023/12/25 10:50:27;;;;;;;3.53;1.23;;;9.50;99.90;;;;;;4968286;28;20117;-63
2023/12/25 10:53:03;;;;;;;;;;;9.50;99.90;;;;;;4962623;28;20118;-62
2023/12/25 10:55:39;;;;;;;5.30;1.67;;;9.60;99.90;;;;;;4962870;28;20199;-62
2023/12/25 10:58:07;;;;;;;4.18;1.58;;;9.60;99.90;;;;;;4967102;28;20034;-63
2023/12/25 11:00:36;;;;;;;7.93;1.20;;;9.60;99.90;;;;;;4969743;28;20110;-62
2023/12/25 11:03:03;;;;;;;3.78;1.33;;;9.60;99.90;;;;;;4967845;28;20039;-62
2023/12/25 11:05:31;;;;;;;4.90;1.55;;;9.60;99.90;;;;;;4975350;28;20026;-62
2023/12/25 11:07:58;;;;;;;9.23;2.60;;;9.50;99.90;;;;;;4971353;28;20471;-62
2023/12/25 11:10:26;;;;;;;6.53;1.60;;;9.50;99.90;;;;;;4967314;28;20056;-62
2023/12/25 11:12:51;;;;;;;4.30;1.50;;;9.50;99.90;;;;;;4972353;28;20053;-62
2023/12/25 11:15:17;;;;;;;3.20;1.13;;;9.50;99.90;;;;;;4964335;28;20489;-62
2023/12/25 11:17:43;;;;;;;4.70;1.38;;;9.50;99.90;;;;;;4976799;28;20033;-62
2023/12/25 11:20:12;;;;;;;4.53;1.35;;;9.50;99.90;;;;;;4971352;28;20023;-62
2023/12/25 11:22:40;;;;;;;3.00;1.20;;;9.50;99.90;;;;;;4973411;28;20027;-62
2023/12/25 11:25:14;;;;;;;2.95;1.25;;;9.60;99.90;;;;;;4972173;28;20022;-62
2023/12/25 11:27:40;;;;;;;3.53;1.17;;;9.60;99.90;;;;;;4973211;28;20019;-63
2023/12/25 11:30:11;;;;;;;3.13;1.05;;;9.60;99.90;;;;;;4971826;28;20101;-62
2023/12/25 11:32:37;;;;;;;;;;;9.50;99.90;;;;;;4979264;28;20027;-63
2023/12/25 11:35:03;;;;;;;4.30;1.35;;;9.60;99.90;;;;;;4968932;28;20579;-62
2023/12/25 11:37:29;;;;;;;5.88;1.20;;;9.60;99.90;;;;;;4974983;28;20033;-62
2023/12/25 11:39:59;;;;;;;3.88;1.35;;;9.60;99.90;;;;;;4974698;28;20030;-62
2023/12/25 11:42:26;;;;;;;4.57;1.40;;;9.60;99.90;;;;;;4970982;28;20023;-62
2023/12/25 11:44:58;;;;;;;4.68;1.40;;;9.60;99.90;;;;;;4978150;28;20041;-62
2023/12/25 11:47:28;;;;;;;2.92;1.10;;;9.70;99.90;;;;;;4968495;28;20023;-62
2023/12/25 11:49:55;;;;;;;3.70;1.10;;;9.80;99.90;;;;;;4972113;28;20019;-62
2023/12/25 11:52:42;;;;;;;3.47;1.20;;;9.80;99.90;;;;;;4977950;28;20034;-63
2023/12/25 11:55:09;;;;;;;4.47;1.30;;;9.80;99.90;;;;;;4970412;28;20030;-63
2023/12/25 11:57:35;;;;;;;3.20;1.30;;;9.90;99.90;;;;;;4981085;28;20018;-64
2023/12/25 12:00:01;;;;;;;4.40;1.20;;;9.80;99.90;;;;;;4974941;28;20042;-63
2023/12/25 12:02:27;;;;;;;5.30;1.55;;;9.80;99.90;;;;;;4974394;28;20031;-63
2023/12/25 12:04:52;;;;;;;3.40;1.20;;;9.80;99.90;;;;;;4975059;28;20030;-62
2023/12/25 12:07:18;;;;;;;3.65;1.27;;;9.80;99.90;;;;;;4970345;28;20026;-63
2023/12/25 12:09:43;;;;;;;4.13;1.40;;;9.70;99.90;;;;;;4973772;28;20386;-62
2023/12/25 12:12:09;;;;;;;5.63;1.75;;;9.70;99.90;;;;;;4973898;28;20118;-62
2023/12/25 12:14:37;;;;;;;3.92;1.38;;;9.70;99.90;;;;;;4974977;28;20284;-62
2023/12/25 12:17:04;;;;;;;3.47;1.30;;;9.70;99.90;;;;;;4979419;28;20019;-63
2023/12/25 12:19:30;;;;;;;3.13;1.27;;;9.70;99.90;;;;;;4970530;28;20038;-62
2023/12/25 12:21:56;;;;;;;5.03;1.63;;;9.70;99.90;;;;;;4977065;28;20034;-63
2023/12/25 12:24:28;;;;;;;3.38;1.30;;;9.70;99.90;;;;;;4970438;28;20072;-62
2023/12/25 12:27:01;;;;;;;4.60;1.50;;;9.80;99.90;;;;;;4974948;28;20117;-62
2023/12/25 12:29:26;;;;;;;4.18;1.48;;;9.70;99.90;;;;;;4973036;28;20117;-62
2023/12/25 12:31:52;;;;;;;4.85;1.55;;;9.80;99.90;;;;;;4974675;28;20058;-62
2023/12/25 12:34:20;;;;;;;4.63;1.50;;;9.80;99.90;;;;;;4968734;28;20035;-62
2023/12/25 12:37:03;;;;;;;4.32;1.55;;;9.70;99.90;;;;;;4979243;28;20041;-60
2023/12/25 12:39:30;;;;;;;4.07;1.23;;;9.80;99.90;;;;;;4972153;28;20566;-61
2023/12/25 12:41:56;;;;;;;5.50;1.73;;;9.80;99.90;;;;;;4976089;28;20031;-61
2023/12/25 12:44:23;;;;;;;5.30;2.10;;;9.80;99.90;;;;;;4973683;28;20105;-61
2023/12/25 12:46:49;;;;;;;6.68;2.10;;;9.80;99.90;;;;;;4970423;28;20128;-61